sensor_id;sensor_type;location;lat;lon;timestamp;P1;durP1;ratioP1;P2;durP2;ratioP2
23730;SDS011;12046;44.702;10.622;2023-04-12T00:02:24;5.07;;;3.67;;
23730;SDS011;12046;44.702;10.622;2023-04-12T00:04:51;5.57;;;4.93;;
23730;SDS011;12046;44.702;10.622;2023-04-12T00:07:22;8.30;;;4.82;;
23730;SDS011;12046;44.702;10.622;2023-04-12T00:09:49;5.38;;;4.97;;
23730;SDS011;12046;44.702;10.622;2023-04-12T00:12:16;9.02;;;5.13;;
23730;SDS011;12046;44.702;10.622;2023-04-12T00:14:43;5.75;;;5.07;;
23730;SDS011;12046;44.702;10.622;2023-04-12T00:17:10;6.63;;;5.32;;
23730;SDS011;12046;44.702;10.622;2023-04-12T00:19:37;5.45;;;5.00;;
23730;SDS011;12046;44.702;10.622;2023-04-12T00:22:09;6.65;;;5.05;;
23730;SDS011;12046;44.702;10.622;2023-04-12T00:24:37;5.70;;;5.05;;
23730;SDS011;12046;44.702;10.622;2023-04-12T00:27:04;5.13;;;4.63;;
23730;SDS011;12046;44.702;10.622;2023-04-12T00:29:30;5.50;;;4.63;;
23730;SDS011;12046;44.702;10.622;2023-04-12T00:31:56;6.07;;;4.63;;
23730;SDS011;12046;44.702;10.622;2023-04-12T00:34:23;6.40;;;5.68;;
23730;SDS011;12046;44.702;10.622;2023-04-12T00:52:58;10.75;;;7.43;;
23730;SDS011;12046;44.702;10.622;2023-04-12T00:55:24;9.30;;;7.43;;
23730;SDS011;12046;44.702;10.622;2023-04-12T00:57:50;10.35;;;8.63;;
23730;SDS011;12046;44.702;10.622;2023-04-12T01:00:16;10.30;;;9.13;;
23730;SDS011;12046;44.702;10.622;2023-04-12T01:02:43;9.23;;;8.32;;
23730;SDS011;12046;44.702;10.622;2023-04-12T01:05:15;11.50;;;9.57;;
23730;SDS011;12046;44.702;10.622;2023-04-12T01:08:04;11.52;;;10.35;;
23730;SDS011;12046;44.702;10.622;2023-04-12T01:15:53;12.23;;;10.18;;
23730;SDS011;12046;44.702;10.622;2023-04-12T01:18:35;11.45;;;9.55;;
23730;SDS011;12046;44.702;10.622;2023-04-12T01:21:08;12.25;;;10.70;;
23730;SDS011;12046;44.702;10.622;2023-04-12T01:23:57;12.10;;;10.90;;
23730;SDS011;12046;44.702;10.622;2023-04-12T01:26:45;11.20;;;8.93;;
23730;SDS011;12046;44.702;10.622;2023-04-12T01:29:20;9.82;;;8.82;;
23730;SDS011;12046;44.702;10.622;2023-04-12T01:32:07;10.68;;;9.63;;
23730;SDS011;12046;44.702;10.622;2023-04-12T01:34:33;12.45;;;9.88;;
23730;SDS011;12046;44.702;10.622;2023-04-12T01:37:01;12.90;;;10.30;;
23730;SDS011;12046;44.702;10.622;2023-04-12T01:39:31;10.60;;;9.60;;
23730;SDS011;12046;44.702;10.622;2023-04-12T01:41:57;11.00;;;9.95;;
23730;SDS011;12046;44.702;10.622;2023-04-12T01:44:23;10.73;;;9.32;;
23730;SDS011;12046;44.702;10.622;2023-04-12T01:46:49;11.48;;;9.98;;
23730;SDS011;12046;44.702;10.622;2023-04-12T01:49:16;11.52;;;10.35;;
23730;SDS011;12046;44.702;10.622;2023-04-12T01:51:57;11.32;;;10.13;;
23730;SDS011;12046;44.702;10.622;2023-04-12T01:54:37;10.73;;;9.63;;
23730;SDS011;12046;44.702;10.622;2023-04-12T01:57:06;12.27;;;11.00;;
23730;SDS011;12046;44.702;10.622;2023-04-12T01:59:40;13.23;;;11.63;;
23730;SDS011;12046;44.702;10.622;2023-04-12T02:02:07;12.88;;;10.85;;
23730;SDS011;12046;44.702;10.622;2023-04-12T02:04:34;13.05;;;11.63;;
23730;SDS011;12046;44.702;10.622;2023-04-12T02:07:01;14.00;;;12.50;;
23730;SDS011;12046;44.702;10.622;2023-04-12T02:09:27;14.43;;;12.18;;
23730;SDS011;12046;44.702;10.622;2023-04-12T02:11:53;13.35;;;11.95;;
23730;SDS011;12046;44.702;10.622;2023-04-12T02:14:20;14.52;;;12.98;;
23730;SDS011;12046;44.702;10.622;2023-04-12T02:16:46;14.77;;;12.45;;
23730;SDS011;12046;44.702;10.622;2023-04-12T02:19:12;14.57;;;13.02;;
23730;SDS011;12046;44.702;10.622;2023-04-12T02:21:41;13.80;;;12.50;;
23730;SDS011;12046;44.702;10.622;2023-04-12T02:24:08;14.18;;;12.73;;
23730;SDS011;12046;44.702;10.622;2023-04-12T02:26:34;14.70;;;12.88;;
23730;SDS011;12046;44.702;10.622;2023-04-12T02:29:01;14.27;;;12.63;;
23730;SDS011;12046;44.702;10.622;2023-04-12T02:31:27;14.07;;;12.68;;
23730;SDS011;12046;44.702;10.622;2023-04-12T02:33:55;15.40;;;13.27;;
23730;SDS011;12046;44.702;10.622;2023-04-12T02:36:21;15.02;;;13.55;;
23730;SDS011;12046;44.702;10.622;2023-04-12T02:38:47;15.27;;;13.30;;
23730;SDS011;12046;44.702;10.622;2023-04-12T02:41:19;16.23;;;13.82;;
23730;SDS011;12046;44.702;10.622;2023-04-12T02:43:45;14.48;;;13.02;;
23730;SDS011;12046;44.702;10.622;2023-04-12T02:46:15;15.55;;;13.95;;
23730;SDS011;12046;44.702;10.622;2023-04-12T02:48:48;16.15;;;12.73;;
23730;SDS011;12046;44.702;10.622;2023-04-12T02:51:14;14.45;;;12.95;;
23730;SDS011;12046;44.702;10.622;2023-04-12T02:53:40;14.70;;;13.23;;
23730;SDS011;12046;44.702;10.622;2023-04-12T02:56:06;15.70;;;14.20;;
23730;SDS011;12046;44.702;10.622;2023-04-12T02:58:32;16.38;;;14.70;;
23730;SDS011;12046;44.702;10.622;2023-04-12T03:00:59;16.80;;;15.10;;
23730;SDS011;12046;44.702;10.622;2023-04-12T03:03:25;15.52;;;13.95;;
23730;SDS011;12046;44.702;10.622;2023-04-12T03:05:52;15.73;;;13.98;;
23730;SDS011;12046;44.702;10.622;2023-04-12T03:08:19;15.70;;;13.98;;
23730;SDS011;12046;44.702;10.622;2023-04-12T03:10:46;15.70;;;14.00;;
23730;SDS011;12046;44.702;10.622;2023-04-12T03:13:11;16.20;;;14.50;;
23730;SDS011;12046;44.702;10.622;2023-04-12T03:15:37;15.60;;;14.00;;
23730;SDS011;12046;44.702;10.622;2023-04-12T03:25:50;16.80;;;14.00;;
23730;SDS011;12046;44.702;10.622;2023-04-12T03:28:15;16.80;;;14.82;;
23730;SDS011;12046;44.702;10.622;2023-04-12T03:30:41;16.58;;;14.80;;
23730;SDS011;12046;44.702;10.622;2023-04-12T03:33:07;18.10;;;16.00;;
23730;SDS011;12046;44.702;10.622;2023-04-12T03:35:32;17.83;;;15.95;;
23730;SDS011;12046;44.702;10.622;2023-04-12T03:37:58;19.60;;;17.08;;
23730;SDS011;12046;44.702;10.622;2023-04-12T03:40:25;17.60;;;15.77;;
23730;SDS011;12046;44.702;10.622;2023-04-12T03:42:51;18.75;;;16.83;;
23730;SDS011;12046;44.702;10.622;2023-04-12T03:45:17;19.55;;;16.88;;
23730;SDS011;12046;44.702;10.622;2023-04-12T03:47:42;20.42;;;17.55;;
23730;SDS011;12046;44.702;10.622;2023-04-12T03:50:08;20.55;;;17.85;;
23730;SDS011;12046;44.702;10.622;2023-04-12T03:55:09;21.40;;;17.80;;
23730;SDS011;12046;44.702;10.622;2023-04-12T03:57:37;19.70;;;17.70;;
23730;SDS011;12046;44.702;10.622;2023-04-12T04:00:03;20.00;;;17.92;;
23730;SDS011;12046;44.702;10.622;2023-04-12T04:02:30;21.77;;;18.30;;
23730;SDS011;12046;44.702;10.622;2023-04-12T04:04:56;19.83;;;17.67;;
23730;SDS011;12046;44.702;10.622;2023-04-12T04:07:21;19.98;;;17.60;;
23730;SDS011;12046;44.702;10.622;2023-04-12T04:09:47;21.00;;;18.75;;
23730;SDS011;12046;44.702;10.622;2023-04-12T04:12:15;21.20;;;19.00;;
23730;SDS011;12046;44.702;10.622;2023-04-12T04:14:40;21.95;;;19.33;;
23730;SDS011;12046;44.702;10.622;2023-04-12T04:17:06;22.15;;;19.75;;
23730;SDS011;12046;44.702;10.622;2023-04-12T04:19:32;24.88;;;18.42;;
23730;SDS011;12046;44.702;10.622;2023-04-12T04:21:57;20.30;;;18.08;;
23730;SDS011;12046;44.702;10.622;2023-04-12T04:24:26;20.52;;;17.10;;
23730;SDS011;12046;44.702;10.622;2023-04-12T04:26:51;26.60;;;19.83;;
23730;SDS011;12046;44.702;10.622;2023-04-12T04:29:18;22.42;;;19.42;;
23730;SDS011;12046;44.702;10.622;2023-04-12T04:31:44;22.20;;;19.20;;
23730;SDS011;12046;44.702;10.622;2023-04-12T04:34:10;22.42;;;19.95;;
23730;SDS011;12046;44.702;10.622;2023-04-12T04:36:36;23.75;;;21.25;;
23730;SDS011;12046;44.702;10.622;2023-04-12T04:49:23;27.65;;;21.25;;
23730;SDS011;12046;44.702;10.622;2023-04-12T04:51:49;25.75;;;22.33;;
23730;SDS011;12046;44.702;10.622;2023-04-12T04:54:15;24.95;;;22.33;;
23730;SDS011;12046;44.702;10.622;2023-04-12T04:56:41;26.20;;;22.65;;
23730;SDS011;12046;44.702;10.622;2023-04-12T04:59:07;33.22;;;26.15;;
23730;SDS011;12046;44.702;10.622;2023-04-12T05:01:32;26.15;;;22.88;;
23730;SDS011;12046;44.702;10.622;2023-04-12T05:04:02;25.67;;;22.80;;
23730;SDS011;12046;44.702;10.622;2023-04-12T05:06:28;27.38;;;23.60;;
23730;SDS011;12046;44.702;10.622;2023-04-12T05:14:05;30.83;;;25.20;;
23730;SDS011;12046;44.702;10.622;2023-04-12T05:19:07;33.42;;;25.83;;
23730;SDS011;12046;44.702;10.622;2023-04-12T05:21:32;29.45;;;25.33;;
23730;SDS011;12046;44.702;10.622;2023-04-12T05:23:58;30.50;;;26.27;;
23730;SDS011;12046;44.702;10.622;2023-04-12T05:26:25;29.73;;;25.95;;
23730;SDS011;12046;44.702;10.622;2023-04-12T05:28:51;30.30;;;26.70;;
23730;SDS011;12046;44.702;10.622;2023-04-12T05:31:17;29.20;;;25.67;;
23730;SDS011;12046;44.702;10.622;2023-04-12T05:36:46;28.30;;;24.45;;
23730;SDS011;12046;44.702;10.622;2023-04-12T06:38:16;42.92;;;28.02;;
23730;SDS011;12046;44.702;10.622;2023-04-12T06:40:45;42.47;;;30.45;;
23730;SDS011;12046;44.702;10.622;2023-04-12T06:43:11;43.40;;;30.90;;
23730;SDS011;12046;44.702;10.622;2023-04-12T06:45:37;43.70;;;31.00;;
23730;SDS011;12046;44.702;10.622;2023-04-12T06:48:03;40.35;;;29.60;;
23730;SDS011;12046;44.702;10.622;2023-04-12T06:50:28;39.85;;;28.23;;
23730;SDS011;12046;44.702;10.622;2023-04-12T06:52:54;41.05;;;29.33;;
23730;SDS011;12046;44.702;10.622;2023-04-12T06:55:20;42.10;;;30.83;;
23730;SDS011;12046;44.702;10.622;2023-04-12T06:57:46;44.65;;;30.40;;
23730;SDS011;12046;44.702;10.622;2023-04-12T07:00:12;44.80;;;29.95;;
23730;SDS011;12046;44.702;10.622;2023-04-12T07:02:38;44.13;;;31.08;;
23730;SDS011;12046;44.702;10.622;2023-04-12T07:05:04;46.83;;;32.83;;
23730;SDS011;12046;44.702;10.622;2023-04-12T07:07:30;45.47;;;32.20;;
23730;SDS011;12046;44.702;10.622;2023-04-12T07:09:56;49.85;;;31.63;;
23730;SDS011;12046;44.702;10.622;2023-04-12T09:37:18;34.03;;;29.23;;
23730;SDS011;12046;44.702;10.622;2023-04-12T09:39:44;33.50;;;28.20;;
23730;SDS011;12046;44.702;10.622;2023-04-12T09:42:10;36.22;;;31.42;;
23730;SDS011;12046;44.702;10.622;2023-04-12T09:44:38;35.05;;;28.13;;
23730;SDS011;12046;44.702;10.622;2023-04-12T09:47:04;41.85;;;33.03;;
23730;SDS011;12046;44.702;10.622;2023-04-12T09:49:49;39.17;;;34.30;;
23730;SDS011;12046;44.702;10.622;2023-04-12T09:52:15;35.72;;;30.98;;
23730;SDS011;12046;44.702;10.622;2023-04-12T09:54:44;35.85;;;29.35;;
23730;SDS011;12046;44.702;10.622;2023-04-12T09:57:13;35.72;;;30.63;;
23730;SDS011;12046;44.702;10.622;2023-04-12T09:59:43;35.15;;;31.33;;
23730;SDS011;12046;44.702;10.622;2023-04-12T10:02:14;34.17;;;29.25;;
23730;SDS011;12046;44.702;10.622;2023-04-12T10:04:44;33.07;;;29.50;;
23730;SDS011;12046;44.702;10.622;2023-04-12T10:07:11;32.33;;;28.90;;
23730;SDS011;12046;44.702;10.622;2023-04-12T10:09:40;31.80;;;27.45;;
23730;SDS011;12046;44.702;10.622;2023-04-12T10:12:06;32.08;;;28.70;;
23730;SDS011;12046;44.702;10.622;2023-04-12T10:14:33;35.80;;;28.52;;
23730;SDS011;12046;44.702;10.622;2023-04-12T10:17:00;31.13;;;27.48;;
23730;SDS011;12046;44.702;10.622;2023-04-12T10:19:28;32.40;;;27.58;;
23730;SDS011;12046;44.702;10.622;2023-04-12T10:21:57;30.73;;;26.98;;
23730;SDS011;12046;44.702;10.622;2023-04-12T10:24:24;30.63;;;27.40;;
23730;SDS011;12046;44.702;10.622;2023-04-12T10:26:55;30.95;;;27.63;;
23730;SDS011;12046;44.702;10.622;2023-04-12T10:31:55;32.58;;;29.13;;
23730;SDS011;12046;44.702;10.622;2023-04-12T10:34:28;28.90;;;25.90;;
23730;SDS011;12046;44.702;10.622;2023-04-12T10:39:44;35.00;;;31.17;;
23730;SDS011;12046;44.702;10.622;2023-04-12T10:44:40;33.33;;;30.02;;
23730;SDS011;12046;44.702;10.622;2023-04-12T10:47:05;31.83;;;28.73;;
23730;SDS011;12046;44.702;10.622;2023-04-12T10:49:32;32.45;;;29.17;;
23730;SDS011;12046;44.702;10.622;2023-04-12T10:54:33;29.65;;;26.63;;
23730;SDS011;12046;44.702;10.622;2023-04-12T10:57:06;28.80;;;25.40;;
23730;SDS011;12046;44.702;10.622;2023-04-12T10:59:53;29.70;;;26.85;;
23730;SDS011;12046;44.702;10.622;2023-04-12T11:02:21;28.42;;;25.52;;
23730;SDS011;12046;44.702;10.622;2023-04-12T11:07:39;24.27;;;21.65;;
23730;SDS011;12046;44.702;10.622;2023-04-12T11:10:15;24.50;;;21.95;;
23730;SDS011;12046;44.702;10.622;2023-04-12T11:12:53;24.80;;;21.90;;
23730;SDS011;12046;44.702;10.622;2023-04-12T11:15:24;23.52;;;20.35;;
23730;SDS011;12046;44.702;10.622;2023-04-12T11:17:51;23.67;;;21.27;;
23730;SDS011;12046;44.702;10.622;2023-04-12T11:20:51;21.70;;;19.48;;
23730;SDS011;12046;44.702;10.622;2023-04-12T11:23:17;21.95;;;19.65;;
23730;SDS011;12046;44.702;10.622;2023-04-12T11:25:43;22.40;;;19.85;;
23730;SDS011;12046;44.702;10.622;2023-04-12T11:28:16;21.13;;;18.58;;
23730;SDS011;12046;44.702;10.622;2023-04-12T11:30:50;20.38;;;18.15;;
23730;SDS011;12046;44.702;10.622;2023-04-12T11:36:16;21.70;;;17.65;;
23730;SDS011;12046;44.702;10.622;2023-04-12T11:38:42;19.77;;;16.98;;
23730;SDS011;12046;44.702;10.622;2023-04-12T11:44:12;18.70;;;16.27;;
23730;SDS011;12046;44.702;10.622;2023-04-12T11:46:38;17.05;;;15.38;;
23730;SDS011;12046;44.702;10.622;2023-04-12T11:49:05;18.70;;;16.55;;
23730;SDS011;12046;44.702;10.622;2023-04-12T11:51:31;20.90;;;16.45;;
23730;SDS011;12046;44.702;10.622;2023-04-12T11:53:57;19.05;;;15.77;;
23730;SDS011;12046;44.702;10.622;2023-04-12T11:56:27;18.33;;;14.63;;
23730;SDS011;12046;44.702;10.622;2023-04-12T11:58:53;19.58;;;15.88;;
23730;SDS011;12046;44.702;10.622;2023-04-12T12:01:19;18.70;;;15.60;;
23730;SDS011;12046;44.702;10.622;2023-04-12T12:03:47;17.73;;;15.27;;
23730;SDS011;12046;44.702;10.622;2023-04-12T12:06:14;16.90;;;15.10;;
23730;SDS011;12046;44.702;10.622;2023-04-12T12:08:46;17.08;;;15.40;;
23730;SDS011;12046;44.702;10.622;2023-04-12T12:11:18;17.33;;;13.63;;
23730;SDS011;12046;44.702;10.622;2023-04-12T12:13:49;16.25;;;14.27;;
23730;SDS011;12046;44.702;10.622;2023-04-12T12:16:25;15.75;;;13.80;;
23730;SDS011;12046;44.702;10.622;2023-04-12T12:18:55;14.55;;;13.10;;
23730;SDS011;12046;44.702;10.622;2023-04-12T12:21:25;14.45;;;13.05;;
23730;SDS011;12046;44.702;10.622;2023-04-12T12:24:00;15.48;;;13.98;;
23730;SDS011;12046;44.702;10.622;2023-04-12T12:26:27;15.63;;;14.20;;
23730;SDS011;12046;44.702;10.622;2023-04-12T12:28:55;15.48;;;13.88;;
23730;SDS011;12046;44.702;10.622;2023-04-12T12:31:29;15.10;;;13.70;;
23730;SDS011;12046;44.702;10.622;2023-04-12T12:33:58;15.27;;;13.88;;
23730;SDS011;12046;44.702;10.622;2023-04-12T12:36:30;15.88;;;14.30;;
23730;SDS011;12046;44.702;10.622;2023-04-12T12:41:36;15.75;;;14.15;;
23730;SDS011;12046;44.702;10.622;2023-04-12T12:44:04;13.75;;;12.30;;
23730;SDS011;12046;44.702;10.622;2023-04-12T12:46:31;16.92;;;15.23;;
23730;SDS011;12046;44.702;10.622;2023-04-12T12:48:58;15.13;;;13.60;;
23730;SDS011;12046;44.702;10.622;2023-04-12T12:51:23;15.75;;;14.15;;
23730;SDS011;12046;44.702;10.622;2023-04-12T12:53:50;16.63;;;14.80;;
23730;SDS011;12046;44.702;10.622;2023-04-12T12:56:16;15.77;;;14.15;;
23730;SDS011;12046;44.702;10.622;2023-04-12T12:58:42;16.63;;;14.85;;
23730;SDS011;12046;44.702;10.622;2023-04-12T13:01:07;16.02;;;14.50;;
23730;SDS011;12046;44.702;10.622;2023-04-12T13:03:33;16.48;;;14.70;;
23730;SDS011;12046;44.702;10.622;2023-04-12T13:05:59;17.67;;;15.05;;
23730;SDS011;12046;44.702;10.622;2023-04-12T13:08:25;16.10;;;14.15;;
23730;SDS011;12046;44.702;10.622;2023-04-12T13:10:52;15.45;;;13.85;;
23730;SDS011;12046;44.702;10.622;2023-04-12T13:13:19;17.38;;;14.63;;
23730;SDS011;12046;44.702;10.622;2023-04-12T13:15:45;15.52;;;13.70;;
23730;SDS011;12046;44.702;10.622;2023-04-12T13:18:12;16.75;;;14.75;;
23730;SDS011;12046;44.702;10.622;2023-04-12T13:20:41;16.88;;;15.00;;
23730;SDS011;12046;44.702;10.622;2023-04-12T13:23:07;15.93;;;14.20;;
23730;SDS011;12046;44.702;10.622;2023-04-12T13:25:33;16.08;;;14.45;;
23730;SDS011;12046;44.702;10.622;2023-04-12T13:27:58;16.60;;;13.73;;
23730;SDS011;12046;44.702;10.622;2023-04-12T13:30:24;16.95;;;15.10;;
23730;SDS011;12046;44.702;10.622;2023-04-12T13:32:50;16.38;;;14.80;;
23730;SDS011;12046;44.702;10.622;2023-04-12T13:35:17;15.77;;;14.07;;
23730;SDS011;12046;44.702;10.622;2023-04-12T13:37:43;15.75;;;14.20;;
23730;SDS011;12046;44.702;10.622;2023-04-12T13:40:08;18.38;;;14.68;;
23730;SDS011;12046;44.702;10.622;2023-04-12T13:42:34;18.70;;;14.02;;
23730;SDS011;12046;44.702;10.622;2023-04-12T13:45:00;17.67;;;15.77;;
23730;SDS011;12046;44.702;10.622;2023-04-12T13:47:26;15.45;;;13.82;;
23730;SDS011;12046;44.702;10.622;2023-04-12T13:49:52;15.90;;;14.20;;
23730;SDS011;12046;44.702;10.622;2023-04-12T13:52:21;16.30;;;14.57;;
23730;SDS011;12046;44.702;10.622;2023-04-12T13:54:47;17.73;;;15.93;;
23730;SDS011;12046;44.702;10.622;2023-04-12T13:57:13;16.58;;;14.90;;
23730;SDS011;12046;44.702;10.622;2023-04-12T13:59:38;16.55;;;14.63;;
23730;SDS011;12046;44.702;10.622;2023-04-12T14:02:04;15.73;;;13.95;;
23730;SDS011;12046;44.702;10.622;2023-04-12T14:04:30;16.98;;;13.30;;
23730;SDS011;12046;44.702;10.622;2023-04-12T14:06:57;15.30;;;13.80;;
23730;SDS011;12046;44.702;10.622;2023-04-12T14:09:23;19.30;;;13.13;;
23730;SDS011;12046;44.702;10.622;2023-04-12T14:11:50;15.35;;;13.35;;
23730;SDS011;12046;44.702;10.622;2023-04-12T14:14:16;15.13;;;13.55;;
23730;SDS011;12046;44.702;10.622;2023-04-12T14:16:42;15.63;;;14.05;;
23730;SDS011;12046;44.702;10.622;2023-04-12T14:19:08;17.65;;;14.23;;
23730;SDS011;12046;44.702;10.622;2023-04-12T14:21:34;17.38;;;14.25;;
23730;SDS011;12046;44.702;10.622;2023-04-12T14:24:00;19.38;;;13.60;;
23730;SDS011;12046;44.702;10.622;2023-04-12T14:26:26;17.10;;;12.82;;
23730;SDS011;12046;44.702;10.622;2023-04-12T14:28:52;15.68;;;12.85;;
23730;SDS011;12046;44.702;10.622;2023-04-12T14:31:17;29.38;;;15.52;;
23730;SDS011;12046;44.702;10.622;2023-04-12T14:33:43;17.60;;;15.60;;
23730;SDS011;12046;44.702;10.622;2023-04-12T14:36:09;16.23;;;13.65;;
23730;SDS011;12046;44.702;10.622;2023-04-12T14:38:35;15.20;;;13.63;;
23730;SDS011;12046;44.702;10.622;2023-04-12T14:41:05;19.58;;;13.40;;
23730;SDS011;12046;44.702;10.622;2023-04-12T14:43:32;15.30;;;13.70;;
23730;SDS011;12046;44.702;10.622;2023-04-12T14:45:58;14.80;;;13.25;;
23730;SDS011;12046;44.702;10.622;2023-04-12T14:48:24;20.23;;;15.15;;
23730;SDS011;12046;44.702;10.622;2023-04-12T14:50:49;18.40;;;15.27;;
23730;SDS011;12046;44.702;10.622;2023-04-12T14:53:17;16.38;;;14.80;;
23730;SDS011;12046;44.702;10.622;2023-04-12T14:55:43;16.20;;;14.48;;
23730;SDS011;12046;44.702;10.622;2023-04-12T14:58:11;17.70;;;14.52;;
23730;SDS011;12046;44.702;10.622;2023-04-12T15:01:19;15.52;;;13.88;;
23730;SDS011;12046;44.702;10.622;2023-04-12T15:03:45;17.92;;;13.65;;
23730;SDS011;12046;44.702;10.622;2023-04-12T15:06:11;15.55;;;14.02;;
23730;SDS011;12046;44.702;10.622;2023-04-12T15:08:37;15.25;;;13.48;;
23730;SDS011;12046;44.702;10.622;2023-04-12T15:11:07;15.02;;;13.52;;
23730;SDS011;12046;44.702;10.622;2023-04-12T15:13:35;16.45;;;13.55;;
23730;SDS011;12046;44.702;10.622;2023-04-12T15:16:07;17.30;;;13.75;;
23730;SDS011;12046;44.702;10.622;2023-04-12T15:18:34;15.48;;;13.40;;
23730;SDS011;12046;44.702;10.622;2023-04-12T15:21:03;14.85;;;13.35;;
23730;SDS011;12046;44.702;10.622;2023-04-12T15:23:32;14.05;;;12.52;;
23730;SDS011;12046;44.702;10.622;2023-04-12T15:25:58;16.05;;;12.93;;
23730;SDS011;12046;44.702;10.622;2023-04-12T15:28:25;14.93;;;12.88;;
23730;SDS011;12046;44.702;10.622;2023-04-12T15:30:52;14.13;;;12.65;;
23730;SDS011;12046;44.702;10.622;2023-04-12T15:33:18;18.00;;;12.50;;
23730;SDS011;12046;44.702;10.622;2023-04-12T15:35:45;15.95;;;13.25;;
23730;SDS011;12046;44.702;10.622;2023-04-12T15:38:12;15.55;;;11.90;;
23730;SDS011;12046;44.702;10.622;2023-04-12T15:40:38;13.43;;;12.13;;
23730;SDS011;12046;44.702;10.622;2023-04-12T15:43:03;19.17;;;13.15;;
23730;SDS011;12046;44.702;10.622;2023-04-12T15:45:29;17.65;;;13.13;;
23730;SDS011;12046;44.702;10.622;2023-04-12T15:47:55;15.32;;;13.45;;
23730;SDS011;12046;44.702;10.622;2023-04-12T15:50:23;15.93;;;13.63;;
23730;SDS011;12046;44.702;10.622;2023-04-12T15:52:49;16.02;;;13.52;;
23730;SDS011;12046;44.702;10.622;2023-04-12T15:55:14;14.98;;;13.20;;
23730;SDS011;12046;44.702;10.622;2023-04-12T15:57:45;14.32;;;12.57;;
23730;SDS011;12046;44.702;10.622;2023-04-12T16:00:12;14.55;;;12.75;;
23730;SDS011;12046;44.702;10.622;2023-04-12T16:02:50;17.17;;;12.18;;
23730;SDS011;12046;44.702;10.622;2023-04-12T16:05:22;16.20;;;12.40;;
23730;SDS011;12046;44.702;10.622;2023-04-12T16:07:49;14.05;;;12.40;;
23730;SDS011;12046;44.702;10.622;2023-04-12T16:10:19;13.55;;;11.77;;
23730;SDS011;12046;44.702;10.622;2023-04-12T16:12:47;19.60;;;11.88;;
23730;SDS011;12046;44.702;10.622;2023-04-12T16:15:16;13.07;;;11.57;;
23730;SDS011;12046;44.702;10.622;2023-04-12T16:18:06;16.48;;;12.60;;
23730;SDS011;12046;44.702;10.622;2023-04-12T16:20:29;13.13;;;11.63;;
23730;SDS011;12046;44.702;10.622;2023-04-12T16:22:55;14.88;;;11.35;;
23730;SDS011;12046;44.702;10.622;2023-04-12T16:25:24;13.38;;;11.52;;
23730;SDS011;12046;44.702;10.622;2023-04-12T16:27:52;12.63;;;11.32;;
23730;SDS011;12046;44.702;10.622;2023-04-12T16:30:18;12.90;;;11.52;;
23730;SDS011;12046;44.702;10.622;2023-04-12T16:32:46;12.27;;;10.93;;
23730;SDS011;12046;44.702;10.622;2023-04-12T16:35:13;12.90;;;11.60;;
23730;SDS011;12046;44.702;10.622;2023-04-12T16:37:39;12.02;;;10.82;;
23730;SDS011;12046;44.702;10.622;2023-04-12T16:40:06;15.27;;;11.85;;
23730;SDS011;12046;44.702;10.622;2023-04-12T16:42:37;13.02;;;11.07;;
23730;SDS011;12046;44.702;10.622;2023-04-12T16:45:04;18.15;;;11.63;;
23730;SDS011;12046;44.702;10.622;2023-04-12T16:47:30;13.23;;;11.35;;
23730;SDS011;12046;44.702;10.622;2023-04-12T16:49:56;15.48;;;11.77;;
23730;SDS011;12046;44.702;10.622;2023-04-12T16:52:22;12.55;;;11.27;;
23730;SDS011;12046;44.702;10.622;2023-04-12T16:54:48;15.20;;;12.85;;
23730;SDS011;12046;44.702;10.622;2023-04-12T16:57:16;13.18;;;11.93;;
23730;SDS011;12046;44.702;10.622;2023-04-12T16:59:43;14.88;;;12.57;;
23730;SDS011;12046;44.702;10.622;2023-04-12T17:02:08;13.65;;;11.63;;
23730;SDS011;12046;44.702;10.622;2023-04-12T17:04:35;15.25;;;11.88;;
23730;SDS011;12046;44.702;10.622;2023-04-12T17:07:01;13.00;;;11.70;;
23730;SDS011;12046;44.702;10.622;2023-04-12T17:09:27;12.88;;;11.52;;
23730;SDS011;12046;44.702;10.622;2023-04-12T17:11:52;13.38;;;12.05;;
23730;SDS011;12046;44.702;10.622;2023-04-12T17:14:18;12.90;;;11.35;;
23730;SDS011;12046;44.702;10.622;2023-04-12T17:16:45;14.32;;;12.40;;
23730;SDS011;12046;44.702;10.622;2023-04-12T17:19:10;13.98;;;11.57;;
23730;SDS011;12046;44.702;10.622;2023-04-12T17:21:40;15.73;;;12.65;;
23730;SDS011;12046;44.702;10.622;2023-04-12T17:24:06;16.95;;;12.18;;
23730;SDS011;12046;44.702;10.622;2023-04-12T17:26:32;17.00;;;11.95;;
23730;SDS011;12046;44.702;10.622;2023-04-12T17:28:58;15.38;;;12.32;;
23730;SDS011;12046;44.702;10.622;2023-04-12T17:31:25;16.48;;;12.60;;
23730;SDS011;12046;44.702;10.622;2023-04-12T17:33:52;14.70;;;11.55;;
23730;SDS011;12046;44.702;10.622;2023-04-12T17:36:18;15.43;;;12.00;;
23730;SDS011;12046;44.702;10.622;2023-04-12T17:38:44;14.77;;;11.23;;
23730;SDS011;12046;44.702;10.622;2023-04-12T17:41:10;14.80;;;11.55;;
23730;SDS011;12046;44.702;10.622;2023-04-12T17:43:36;14.27;;;11.65;;
23730;SDS011;12046;44.702;10.622;2023-04-12T17:46:02;14.52;;;10.88;;
23730;SDS011;12046;44.702;10.622;2023-04-12T17:48:28;12.07;;;10.15;;
23730;SDS011;12046;44.702;10.622;2023-04-12T17:50:54;13.73;;;10.95;;
23730;SDS011;12046;44.702;10.622;2023-04-12T17:53:20;12.23;;;10.88;;
23730;SDS011;12046;44.702;10.622;2023-04-12T17:55:46;12.40;;;10.23;;
23730;SDS011;12046;44.702;10.622;2023-04-12T17:58:12;12.75;;;10.93;;
23730;SDS011;12046;44.702;10.622;2023-04-12T18:00:38;14.52;;;11.25;;
23730;SDS011;12046;44.702;10.622;2023-04-12T18:03:04;12.35;;;10.30;;
23730;SDS011;12046;44.702;10.622;2023-04-12T18:05:36;14.40;;;11.30;;
23730;SDS011;12046;44.702;10.622;2023-04-12T18:08:01;12.10;;;10.85;;
23730;SDS011;12046;44.702;10.622;2023-04-12T18:10:27;11.20;;;10.02;;
23730;SDS011;12046;44.702;10.622;2023-04-12T18:12:54;14.38;;;10.73;;
23730;SDS011;12046;44.702;10.622;2023-04-12T18:15:20;11.95;;;10.30;;
23730;SDS011;12046;44.702;10.622;2023-04-12T18:17:46;13.75;;;11.10;;
23730;SDS011;12046;44.702;10.622;2023-04-12T18:20:12;13.65;;;10.88;;
23730;SDS011;12046;44.702;10.622;2023-04-12T18:22:38;12.63;;;11.32;;
23730;SDS011;12046;44.702;10.622;2023-04-12T18:25:06;12.63;;;11.23;;
23730;SDS011;12046;44.702;10.622;2023-04-12T18:27:32;14.27;;;10.73;;
23730;SDS011;12046;44.702;10.622;2023-04-12T18:33:14;12.30;;;11.02;;
23730;SDS011;12046;44.702;10.622;2023-04-12T18:35:40;14.27;;;12.05;;
23730;SDS011;12046;44.702;10.622;2023-04-12T18:38:07;15.35;;;11.88;;
23730;SDS011;12046;44.702;10.622;2023-04-12T18:40:36;16.45;;;12.32;;
23730;SDS011;12046;44.702;10.622;2023-04-12T18:43:02;12.98;;;11.32;;
23730;SDS011;12046;44.702;10.622;2023-04-12T18:45:28;12.43;;;10.95;;
23730;SDS011;12046;44.702;10.622;2023-04-12T18:47:54;12.77;;;11.48;;
23730;SDS011;12046;44.702;10.622;2023-04-12T18:50:20;12.10;;;10.82;;
23730;SDS011;12046;44.702;10.622;2023-04-12T18:52:47;12.35;;;10.48;;
23730;SDS011;12046;44.702;10.622;2023-04-12T18:58:31;12.68;;;11.38;;
23730;SDS011;12046;44.702;10.622;2023-04-12T19:00:57;12.35;;;11.10;;